19 de maio de 2022

Tempo Código Clima Temp. Visão Nuvens Vento METAR/SPECI
13:00
M
10 °C 24 km 2.100 ft 050°   050° 7 kt METAR CYOW 191700Z CCA 05007KT 15SM -RA FEW009 BKN021 OVC055 10/08 A2966 RMK SC1SC6SC1 SLP050
12:54
M
9 °C 24 km 2.100 ft 060°   060° 7 kt METAR CYOW 191654Z 06007KT 15SM -RA BKN021 OVC055 09/08 A2966 RMK SC7SC1 SLP050
12:39
M
9 °C 24 km 2.100 ft 060°   060° 7 kt METAR CYOW 191639Z 06007KT 15SM BKN021 OVC055 09/08 A2966 RMK SC7SC1 SLP049
12:00
M
8 °C 13 km 2.400 ft 040°   040° 7 kt METAR CYOW 191600Z 04007KT 8SM -RA BKN024 BKN034 OVC055 08/07 A2966 RMK SC5SC1SC2 SLP049
11:00
M
8 °C 16 km 2.800 ft 070°   070° 7 kt METAR CYOW 191500Z 07007KT 10SM -RA BKN028 OVC045 08/06 A2968 RMK SC5SC3 SLP056
10:00
V
8 °C 16 km 5.000 ft 050°   050° 3 kt METAR CYOW 191400Z 05003KT 10SM -RA SCT031 OVC050 08/06 A2970 RMK SC3SC5 SLP062
09:02
V
9 °C 24 km 5.000 ft 040°   040° 6 kt METAR CYOW 191302Z 04006KT 15SM -RA OVC050 09/05 A2970 RMK SC8 SLP062
09:00
V
9 °C 24 km 5.000 ft 030°   030° 7 kt METAR CYOW 191300Z 03007KT 15SM OVC050 09/05 A2970 RMK SC8 SLP062
08:00
V
8 °C 24 km 6.000 ft 070°   070° 6 kt METAR CYOW 191200Z 07006KT 15SM BKN060 OVC150 08/05 A2970 RMK SC7AC1 SLP062
07:00
V
6 °C 24 km 6.500 ft 050°   050° 5 kt METAR CYOW 191100Z 05005KT 15SM BKN065 BKN150 OVC240 06/05 A2972 RMK SC5AC2CI1 SLP067
06:00
V
5 °C 24 km 15.000 ft 050°   050° 4 kt METAR CYOW 191000Z 05004KT 15SM FEW070 BKN150 BKN230 05/04 A2973 RMK AC2AC4CI1 SLP071
05:00
V
5 °C 24 km 15.000 ft 050°   050° 4 kt METAR CYOW 190900Z 05004KT 15SM FEW060 BKN150 BKN190 05/03 A2974 RMK SC2AC4AC1 SLP075
04:00
V
4 °C 24 km 16.000 ft 130°   130° 5 kt METAR CYOW 190800Z 13005KT 15SM BKN160 BKN190 04/01 A2975 RMK AC5AC2 SLP078
03:00
V
5 °C 24 km - 170°   170° 5 kt METAR CYOW 190700Z 17005KT 15SM FEW170 SCT190 05/01 A2978 RMK AC1AC2 SLP088
02:00
V
5 °C 24 km - 160°   160° 3 kt METAR CYOW 190600Z 16003KT 15SM FEW170 FEW190 05/02 A2979 RMK AC1AC2 AC TR SLP093
01:00
V
7 °C 24 km - 200°   200° 3 kt METAR CYOW 190500Z 20003KT 15SM FEW170 SCT190 07/02 A2983 RMK AC1AC3 SLP104
00:00
V
8 °C 24 km - 200°   200° 5 kt METAR CYOW 190400Z 20005KT 15SM FEW190 SCT250 08/02 A2985 RMK AC1CI3 SLP113

18 de maio de 2022

Tempo Código Clima Temp. Visão Nuvens Vento METAR/SPECI
23:00
V
9 °C 24 km 25.000 ft 190°   190° 6 kt METAR CYOW 190300Z 19006KT 15SM FEW190 BKN250 09/03 A2984 RMK AC2CI3 SLP109
22:00
V
10 °C 24 km 25.000 ft 190°   190° 5 kt METAR CYOW 190200Z 19005KT 15SM SCT210 BKN250 10/03 A2984 RMK CC3CI2 SLP108
21:00
V
13 °C 24 km - 190°   190° 9 kt METAR CYOW 190100Z 19009KT 15SM FEW080 FEW160 FEW210 SCT250 13/04 A2983 RMK AC1AC1CC1CI2 AC TR CC TR SLP105
20:00
V
14 °C 24 km - 190°   190° 6 kt METAR CYOW 190000Z 19006KT 15SM FEW050 FEW080 FEW250 14/02 A2982 RMK CF1AC1CI2 CF TR AC TR SLP103 DENSITY ALT 500FT
19:00
V
16 °C 24 km - 210°   210° 9 15 kt METAR CYOW 182300Z 21009G15KT 15SM FEW060 FEW080 FEW250 16/01 A2984 RMK CF1AC1CI2 CF TR AC TR SLP108 DENSITY ALT 800FT
18:00
V
17 °C 24 km - 230°   230° 7 kt METAR CYOW 182200Z 23007KT 190V280 15SM FEW070 FEW180 FEW220 SCT250 17/01 A2986 RMK AC1AC1CI1CI3 AC TR AC TR CI TR SLP115 DENSITY ALT 900FT
17:00
V
17 °C 24 km - 190°   190° 6 17 kt METAR CYOW 182100Z 19006G17KT 160V250 15SM FEW180 FEW200 SCT250 17/01 A2989 RMK AC1CI1CI3 AC TR CI TR SLP124 DENSITY ALT 800FT
16:00
V
17 °C 24 km - 250°   250° 8 kt METAR CYOW 182000Z 25008KT 15SM FEW180 FEW250 17/M00 A2991 RMK AC1CI2 AC TR SLP131 DENSITY ALT 800FT
15:00
V
16 °C 24 km - 270°   270° 8 15 kt METAR CYOW 181900Z 27008G15KT 220V310 15SM FEW180 FEW250 16/00 A2993 RMK AC1CI2 AC TR SLP141 DENSITY ALT 600FT
14:00
V
16 °C 24 km - 250°   250° 9 19 kt METAR CYOW 181800Z 25009G19KT 220V290 15SM FEW180 16/02 A2997 RMK AC1 AC TR SLP152 DENSITY ALT 500FT
13:00
V
14 °C 24 km - 210°   210° 7 kt METAR CYOW 181700Z 21007KT 170V320 15SM FEW180 14/02 A2998 RMK AC1 AC TR SLP156 DENSITY ALT 400FT
12:00
V
13 °C 24 km - 240°   240° 6 kt METAR CYOW 181600Z 24006KT 190V320 15SM FEW180 13/00 A3001 RMK AC1 AC TR SLP166
11:00
V
12 °C 24 km - 220°   220° 3 kt METAR CYOW 181500Z 22003KT 190V300 15SM FEW180 12/01 A3002 RMK AC1 AC TR SLP171
10:00
V
11 °C 24 km - Var   Var 2 kt METAR CYOW 181400Z VRB02KT 15SM FEW180 11/M01 A3005 RMK AC1 AC TR SLP180
09:00
V
9 °C 24 km - 330°   330° 4 kt METAR CYOW 181300Z 33004KT 270V010 15SM FEW150 FEW240 09/M02 A3003 RMK AC1CI1 AC TR CI TR SLP173
08:00
V
9 °C 24 km - 010°   010° 5 kt METAR CYOW 181200Z 01005KT 290V060 15SM FEW150 09/M02 A3001 RMK AC1 AC TR SLP166
07:00
V
7 °C 24 km - 360°   360° 6 kt METAR CYOW 181100Z 36006KT 15SM FEW150 07/M02 A3000 RMK AC1 AC TR SLP162
06:00
V
5 °C 24 km - 340°   340° 5 kt METAR CYOW 181000Z 34005KT 15SM FEW150 05/M01 A2999 RMK AC1 AC TR SLP160
05:00
V
6 °C 24 km - 340°   340° 11 kt METAR CYOW 180900Z 34011KT 15SM FEW150 06/M02 A2995 RMK AC1 AC TR SLP147
04:00
V
6 °C 24 km - 320°   320° 8 kt METAR CYOW 180800Z 32008KT 15SM SKC 06/M01 A2994 RMK SLP144
03:00
V
5 °C 24 km - 310°   310° 10 kt METAR CYOW 180700Z 31010KT 15SM SKC 05/01 A2993 RMK SLP141
02:00
V
6 °C 24 km - 270°   270° 9 kt METAR CYOW 180600Z 27009KT 15SM SKC 06/03 A2991 RMK SLP134
01:00
V
8 °C 24 km - 300°   300° 10 kt METAR CYOW 180500Z 30010KT 15SM FEW240 08/01 A2990 RMK CI1 CI TR SLP131
00:00
V
7 °C 24 km - 260°   260° 8 kt METAR CYOW 180400Z 26008KT 15SM FEW055 FEW240 07/04 A2989 RMK SC1CI2 SC TR SLP126

17 de maio de 2022

Tempo Código Clima Temp. Visão Nuvens Vento METAR/SPECI
23:00
V
9 °C 24 km - 280°   280° 8 kt METAR CYOW 180300Z 28008KT 15SM SCT240 09/04 A2987 RMK CI4 SLP119
22:00
V
10 °C 24 km 24.000 ft 270°   270° 10 kt METAR CYOW 180200Z 27010KT 15SM FEW055 BKN240 10/04 A2986 RMK SC1CI5 SLP115
21:00
V
11 °C 24 km 22.000 ft 280°   280° 11 17 kt METAR CYOW 180100Z 28011G17KT 15SM FEW055 FEW070 BKN220 11/04 A2983 RMK SC1AC1CI4 SLP105
20:00
V
12 °C 24 km 21.000 ft 290°   290° 15 22 kt METAR CYOW 180000Z 29015G22KT 15SM SCT055 BKN210 BKN250 12/04 A2980 RMK SC3CI3CI1 SLP096
19:00
V
13 °C 24 km 6.600 ft 290°   290° 21 28 kt METAR CYOW 172300Z 29021G28KT 15SM SCT035 BKN066 13/05 A2978 RMK SC3AC4 SLP088 DENSITY ALT 400FT
18:00
V
13 °C 24 km 3.500 ft 290°   290° 20 28 kt METAR CYOW 172200Z 29020G28KT 15SM BKN035 BKN052 13/06 A2974 RMK CU5SC2 SLP075 DENSITY ALT 500FT
17:00
V
15 °C 24 km 3.500 ft 280°   280° 16 24 kt METAR CYOW 172100Z 28016G24KT 15SM BKN035 BKN060 15/07 A2971 RMK CU5SC2 SLP066 DENSITY ALT 700FT
16:00
V
14 °C 24 km 4.500 ft 290°   290° 19 26 kt METAR CYOW 172000Z 29019G26KT 15SM BKN045 BKN100 14/08 A2969 RMK CU5AC1 SLP059 DENSITY ALT 700FT
15:00
M
15 °C 24 km 2.000 ft 280°   280° 16 23 kt METAR CYOW 171900Z 28016G23KT 15SM BKN020 BKN070 15/11 A2967 RMK SC5AC1 CU EMBD SLP052 DENSITY ALT 800FT
14:54
M
14 °C 24 km 2.000 ft 290°   290° 16 23 kt METAR CYOW 171854Z 29016G23KT 15SM BKN020 BKN070 14/11 A2967 RMK SC5AC1 SLP052 DENSITY ALT 700FT
14:00
M
14 °C 24 km 1.500 ft 270°   270° 13 25 kt METAR CYOW 171800Z 27013G25KT 15SM -RA BKN015 BKN051 14/12 A2966 RMK SC6SC1 SLP048 DENSITY ALT 700FT
13:41
M
12 °C 24 km 1.500 ft 280°   280° 17 23 kt METAR CYOW 171741Z 28017G23KT 15SM -RA BKN015 BKN030 12/10 A2966 RMK SC6SC1 SLP048 DENSITY ALT 500FT
13:00
V
13 °C 24 km 6.800 ft 270°   270° 14 23 kt METAR CYOW 171700Z 27014G23KT 15SM SCT020 BKN068 13/11 A2965 RMK CU4AC3 SLP043 DENSITY ALT 500FT
12:13
M
13 °C 16 km 1.900 ft 270°   270° 14 23 kt METAR CYOW 171613Z 27014G23KT 10SM -RA BKN019 OVC039 13/10 A2963 RMK SC6SC2 SLP038 DENSITY ALT 500FT
12:00
M
14 °C 24 km 1.900 ft 270°   270° 17 25 kt METAR CYOW 171600Z 27017G25KT 15SM BKN019 BKN055 14/11 A2963 RMK SC6SC1 SLP037 DENSITY ALT 700FT
11:37
V
12 °C 24 km 4.000 ft 270°   270° 13 22 kt METAR CYOW 171537Z 27013G22KT 15SM SCT020 OVC040 12/11 A2962 RMK SC4SC4 SLP035 DENSITY ALT 500FT
11:00
M
13 °C 24 km 1.800 ft 260°   260° 15 kt METAR CYOW 171500Z 26015KT 15SM -RA BKN018 OVC030 13/10 A2961 RMK SC7SC1 SLP030 DENSITY ALT 600FT
Dados mais antigos

Baixe nosso aplicativo

Fácil acesso a todas as condições meteorológicas da aviação no seu celular e no seu tablet.
Com muitos recursos não disponíveis no site, como suporte offline e uma lista pessoal de aeroportos.

Nós e terceiros acompanhamos seu comportamento na internet em nosso site com cookies. Se você continuar, nós assumimos que você concorda com nossa política de cookies. Saiba mais